NCAR-RAP Real-Time Weather Data

Output produced by METARs form (06 May 2021  17:00 UTC)
found at http://weather.rap.ucar.edu/surface/
 
KACY 061554Z 32010KT 10SM FEW049 17/04 A2998 RMK AO2 SLP152 T01670044
KACY 061454Z 32009G19KT 270V350 10SM CLR 16/04 A2999 RMK AO2 SLP154 T01560044 53001
KACY 061354Z 32017G22KT 10SM CLR 14/04 A2998 RMK AO2 PK WND 32026/1321 SLP151 T01440039
KACY 061333Z 32013G24KT 10SM BKN031 14/04 A2998 RMK AO2 PK WND 32026/1321 T01440039
KACY 061323Z 34015G26KT 10SM BKN029 14/04 A2998 RMK AO2 PK WND 32026/1321 T01390039
KACY 061254Z 33014KT 10SM CLR 13/04 A2998 RMK AO2 SLP153 T01330044
KACY 061154Z 31013KT 10SM CLR 12/04 A2998 RMK AO2 SLP153 70017 T01170039 10117 20089 51019
KACY 061054Z 29011KT 10SM CLR 10/03 A2998 RMK AO2 SLP150 T01000033
KACY 060954Z 29008KT 10SM CLR 09/03 A2995 RMK AO2 SLP141 T00890033
KACY 060854Z 29008KT 10SM CLR 09/04 A2993 RMK AO2 SLP134 T00940039 53015
KACY 060754Z 30007KT 10SM CLR 10/04 A2991 RMK AO2 SLP128 T01000044
KACY 060654Z 32005KT 10SM FEW055 10/07 A2989 RMK AO2 SLP121 T01000067
KACY 060554Z 32007KT 10SM CLR 11/08 A2988 RMK AO2 SLP118 T01060083 10183 20106 51007
KACY 060454Z 34008KT 10SM CLR 12/09 A2988 RMK AO2 SLP118 T01220089 402280122
KACY 060354Z 33012G17KT 10SM CLR 13/09 A2987 RMK AO2 SLP114 T01330094
KACY 060254Z 33011KT 10SM CLR 14/09 A2986 RMK AO2 SLP112 T01440094 51031
KACY 060154Z 33011KT 10SM CLR 16/12 A2984 RMK AO2 SLP103 T01560117